Time;durP1;ratioP1;P1;durP2;ratioP2;P2;SDS_P1;SDS_P2;PMS_P1;PMS_P2;Temp;Humidity;BMP_temperature;BMP_pressure;BME280_temperature;BME280_humidity;BME280_pressure;Samples;Min_cycle;Max_cycle;Signal;HPM_P1;HPM_P2
2021/10/08 00:01:37;;;;;;;3.47;2.22;;;11.60;99.90;;;;;;5069703;28;20287;-75
2021/10/08 00:04:04;;;;;;;3.00;2.08;;;11.60;99.90;;;;;;5051784;28;20175;-75
2021/10/08 00:06:30;;;;;;;4.45;2.28;;;11.60;99.90;;;;;;5069593;28;20161;-75
2021/10/08 00:08:57;;;;;;;3.53;2.50;;;11.60;99.90;;;;;;5069683;28;20165;-75
2021/10/08 00:11:23;;;;;;;3.42;2.28;;;11.70;99.90;;;;;;5069526;28;20200;-75
2021/10/08 00:13:49;;;;;;;2.83;1.77;;;11.80;99.90;;;;;;5069567;28;20164;-75
2021/10/08 00:16:15;;;;;;;3.67;2.20;;;11.80;99.90;;;;;;5069535;28;20614;-75
2021/10/08 00:18:41;;;;;;;3.25;1.83;;;11.80;99.90;;;;;;5051530;28;20164;-75
2021/10/08 00:21:09;;;;;;;3.08;1.90;;;11.80;99.90;;;;;;5069370;28;20220;-75
2021/10/08 00:23:35;;;;;;;3.47;2.60;;;11.80;99.90;;;;;;5051315;28;20172;-75
2021/10/08 00:26:01;;;;;;;2.92;2.15;;;11.80;99.90;;;;;;5051357;28;20173;-75
2021/10/08 00:28:28;;;;;;;3.97;2.53;;;11.90;99.90;;;;;;5069482;28;20184;-75
2021/10/08 00:30:55;;;;;;;5.90;2.60;;;11.80;99.90;;;;;;5068263;28;20196;-75
2021/10/08 00:33:20;;;;;;;5.00;2.55;;;11.90;99.90;;;;;;5069238;28;20258;-76
2021/10/08 00:35:46;;;;;;;3.95;2.60;;;11.90;99.90;;;;;;5069277;28;20254;-75
2021/10/08 00:38:12;;;;;;;4.47;2.50;;;11.90;99.90;;;;;;5069274;28;20180;-75
2021/10/08 00:40:41;;;;;;;3.88;2.50;;;11.90;99.90;;;;;;5069042;28;20199;-76
2021/10/08 00:43:11;;;;;;;3.15;2.20;;;11.80;99.90;;;;;;5069160;28;20159;-76
2021/10/08 00:45:38;;;;;;;3.72;2.72;;;11.80;99.90;;;;;;5069123;28;20482;-75
2021/10/08 00:48:07;;;;;;;4.47;2.83;;;11.70;99.90;;;;;;5068983;28;20187;-75
2021/10/08 00:50:47;;;;;;;2.85;2.08;;;11.80;99.90;;;;;;5068956;28;20326;-75
2021/10/08 00:53:21;;;;;;;3.63;2.58;;;11.80;99.90;;;;;;5126484;27;20294;-77
2021/10/08 00:55:50;;;;;;;3.92;3.03;;;11.80;99.90;;;;;;5087711;28;20190;-77
2021/10/08 00:58:19;;;;;;;4.13;3.05;;;11.80;99.90;;;;;;5087764;28;20198;-77
2021/10/08 01:00:46;;;;;;;4.65;2.60;;;11.80;99.90;;;;;;5106005;28;20164;-77
2021/10/08 01:03:13;;;;;;;3.42;2.50;;;11.70;99.90;;;;;;5085782;28;20199;-76
2021/10/08 01:05:40;;;;;;;5.93;3.13;;;11.70;99.90;;;;;;5085573;28;20223;-74
2021/10/08 01:08:08;;;;;;;4.43;2.80;;;11.70;99.90;;;;;;5085539;28;20160;-77
2021/10/08 01:10:37;;;;;;;6.25;2.38;;;11.70;99.90;;;;;;5085285;28;20160;-77
2021/10/08 01:13:05;;;;;;;4.47;3.03;;;11.80;99.90;;;;;;5084934;28;20211;-75
2021/10/08 01:15:31;;;;;;;7.13;3.10;;;11.80;99.90;;;;;;5085119;28;20161;-76
2021/10/08 01:17:59;;;;;;;3.72;2.25;;;11.80;99.90;;;;;;5066909;28;20245;-76
2021/10/08 01:20:26;;;;;;;3.78;2.95;;;11.80;99.90;;;;;;5085003;28;20165;-76
2021/10/08 01:22:59;;;;;;;4.00;2.85;;;11.80;99.90;;;;;;5066708;28;20228;-76
2021/10/08 01:25:30;;;;;;;5.18;2.53;;;11.70;99.90;;;;;;5084783;28;20648;-75
2021/10/08 01:27:57;;;;;;;4.45;2.83;;;11.70;99.90;;;;;;5066807;28;20180;-75
2021/10/08 01:30:25;;;;;;;5.43;2.80;;;11.70;99.90;;;;;;5083639;28;20279;-75
2021/10/08 01:32:52;;;;;;;4.97;2.90;;;11.70;99.90;;;;;;5084512;28;20287;-75
2021/10/08 01:35:18;;;;;;;4.07;3.42;;;11.70;99.90;;;;;;5066486;28;20171;-76
2021/10/08 01:37:45;;;;;;;3.47;2.90;;;11.70;99.90;;;;;;5084479;28;20171;-76
2021/10/08 01:40:12;;;;;;;2.60;2.17;;;11.60;99.90;;;;;;5084483;28;20192;-76
2021/10/08 01:42:38;;;;;;;3.90;2.92;;;11.50;99.90;;;;;;5066425;28;20501;-76
2021/10/08 01:45:06;;;;;;;3.63;2.55;;;11.30;99.90;;;;;;5084382;28;20167;-76
2021/10/08 01:47:32;;;;;;;4.80;2.65;;;11.30;99.90;;;;;;5084264;28;20192;-76
2021/10/08 01:49:58;;;;;;;5.45;2.80;;;11.20;99.90;;;;;;5084112;28;20330;-76
2021/10/08 01:52:24;;;;;;;4.43;2.65;;;11.30;99.90;;;;;;5053226;28;20267;-76
2021/10/08 01:54:50;;;;;;;4.97;2.92;;;11.20;99.90;;;;;;5064228;28;20536;-76
2021/10/08 01:57:17;;;;;;;3.15;2.17;;;11.30;99.90;;;;;;5064076;28;20225;-77
2021/10/08 01:59:43;;;;;;;5.53;2.35;;;11.20;99.90;;;;;;5063895;28;20222;-76
2021/10/08 02:02:09;;;;;;;3.38;2.10;;;11.30;99.90;;;;;;5063963;28;20223;-76
2021/10/08 02:04:35;;;;;;;3.90;2.78;;;11.30;99.90;;;;;;5051270;28;20173;-76
2021/10/08 02:07:02;;;;;;;5.03;2.47;;;11.30;99.90;;;;;;5032666;28;20232;-76
2021/10/08 02:09:28;;;;;;;4.15;2.17;;;11.40;99.90;;;;;;5032527;28;20227;-76
2021/10/08 02:11:55;;;;;;;4.05;2.22;;;11.40;99.90;;;;;;5050377;28;20193;-76
2021/10/08 02:14:21;;;;;;;2.83;2.30;;;11.40;99.90;;;;;;5050485;28;20153;-76
2021/10/08 02:16:46;;;;;;;4.05;2.40;;;11.40;99.90;;;;;;5032427;28;20184;-76
2021/10/08 02:19:12;;;;;;;3.35;2.72;;;11.50;99.90;;;;;;5032432;28;20181;-76
2021/10/08 02:21:38;;;;;;;3.03;2.33;;;11.40;99.90;;;;;;5032275;28;20212;-76
2021/10/08 02:24:04;;;;;;;4.50;3.05;;;11.50;99.90;;;;;;5050278;28;20165;-76
2021/10/08 02:26:30;;;;;;;5.22;2.50;;;11.50;99.90;;;;;;5050113;28;20174;-76
2021/10/08 02:28:57;;;;;;;3.72;2.50;;;11.50;99.90;;;;;;5050113;28;20165;-76
2021/10/08 02:31:23;;;;;;;3.38;2.65;;;11.50;99.90;;;;;;5050049;28;20228;-76
2021/10/08 02:33:48;;;;;;;3.78;2.20;;;11.50;99.90;;;;;;5032263;28;20292;-76
2021/10/08 02:36:15;;;;;;;3.53;2.38;;;11.50;99.90;;;;;;5050080;28;20177;-76
2021/10/08 02:38:43;;;;;;;3.28;2.35;;;11.40;99.90;;;;;;5049993;28;20252;-76
2021/10/08 02:41:09;;;;;;;2.63;2.00;;;11.40;99.90;;;;;;5050077;28;20187;-77
2021/10/08 02:43:36;;;;;;;4.15;2.38;;;11.30;99.90;;;;;;5032278;28;20571;-76
2021/10/08 02:46:02;;;;;;;3.58;2.15;;;11.30;99.90;;;;;;5049804;28;20169;-77
2021/10/08 02:48:28;;;;;;;2.55;1.95;;;11.40;99.90;;;;;;5032204;28;20173;-78
2021/10/08 02:50:55;;;;;;;2.88;1.88;;;11.40;99.90;;;;;;5031877;28;20251;-75
2021/10/08 02:53:21;;;;;;;2.40;2.15;;;11.40;99.90;;;;;;5049619;28;20203;-77
2021/10/08 02:55:47;;;;;;;3.85;2.33;;;11.40;99.90;;;;;;5031698;28;20170;-77
2021/10/08 02:58:13;;;;;;;4.47;2.90;;;11.40;99.90;;;;;;5049831;28;20180;-78
2021/10/08 03:00:39;;;;;;;2.83;2.00;;;11.50;99.90;;;;;;5049698;28;20233;-76
2021/10/08 03:03:05;;;;;;;3.33;2.25;;;11.40;99.90;;;;;;5031562;28;20177;-75
2021/10/08 03:05:31;;;;;;;3.10;2.15;;;11.50;99.90;;;;;;5049653;28;20189;-77
2021/10/08 03:07:57;;;;;;;5.25;2.15;;;11.50;99.90;;;;;;5049530;28;20165;-77
2021/10/08 03:10:23;;;;;;;2.80;2.38;;;11.40;99.90;;;;;;5049386;28;20260;-75
2021/10/08 03:12:49;;;;;;;3.60;2.03;;;11.50;99.90;;;;;;5049275;28;20239;-76
2021/10/08 03:15:16;;;;;;;2.78;2.08;;;11.50;99.90;;;;;;5048487;28;20308;-76
2021/10/08 03:17:42;;;;;;;2.13;1.67;;;11.50;99.90;;;;;;5049600;28;20164;-78
2021/10/08 03:20:10;;;;;;;2.88;1.70;;;11.50;99.90;;;;;;5031992;28;20197;-76
2021/10/08 03:22:37;;;;;;;3.70;2.13;;;11.50;99.90;;;;;;5049144;28;20184;-76
2021/10/08 03:25:08;;;;;;;3.63;2.40;;;11.50;99.90;;;;;;5031306;28;20178;-78
2021/10/08 03:27:35;;;;;;;2.60;1.90;;;11.50;99.90;;;;;;5049286;28;20184;-77
2021/10/08 03:30:04;;;;;;;6.55;2.05;;;11.50;99.90;;;;;;5030994;28;20212;-76
2021/10/08 03:32:30;;;;;;;2.83;2.05;;;11.50;99.90;;;;;;5048847;28;20189;-76
2021/10/08 03:34:56;;;;;;;2.15;1.75;;;11.50;99.90;;;;;;5049033;28;20227;-77
2021/10/08 03:37:26;;;;;;;6.60;2.90;;;11.50;99.90;;;;;;5048964;28;20162;-77
2021/10/08 03:39:52;;;;;;;3.08;2.05;;;11.50;99.90;;;;;;5048771;28;20651;-77
2021/10/08 03:42:20;;;;;;;6.18;2.72;;;11.50;99.90;;;;;;5048651;28;20162;-76
2021/10/08 03:44:54;;;;;;;4.15;2.92;;;11.50;99.90;;;;;;5031109;28;20184;-76
2021/10/08 03:47:29;;;;;;;3.85;2.00;;;11.50;99.90;;;;;;5048616;28;20162;-75
2021/10/08 03:49:56;;;;;;;3.60;2.13;;;11.50;99.90;;;;;;5030890;28;20274;-76
2021/10/08 03:52:22;;;;;;;4.95;2.38;;;11.40;99.90;;;;;;5048399;28;20233;-77
2021/10/08 03:54:48;;;;;;;3.25;2.13;;;11.30;99.90;;;;;;5048662;28;20158;-77
2021/10/08 03:57:14;;;;;;;3.22;2.10;;;11.30;99.90;;;;;;5030468;28;20173;-77
2021/10/08 03:59:39;;;;;;;2.53;1.88;;;11.30;99.90;;;;;;5030621;28;20185;-76
2021/10/08 04:02:05;;;;;;;3.78;2.17;;;11.30;99.90;;;;;;5030528;28;20203;-77
2021/10/08 04:04:31;;;;;;;4.38;2.30;;;11.30;99.90;;;;;;5048603;28;20168;-76
2021/10/08 04:06:57;;;;;;;3.42;2.10;;;11.30;99.90;;;;;;5048676;28;20162;-77
2021/10/08 04:09:23;;;;;;;3.13;2.08;;;11.30;99.90;;;;;;5048407;28;20161;-76
2021/10/08 04:11:48;;;;;;;3.45;2.22;;;11.30;99.90;;;;;;5048160;28;20242;-77
2021/10/08 04:14:14;;;;;;;5.15;2.30;;;11.20;99.90;;;;;;5048162;28;20157;-77
2021/10/08 04:16:40;;;;;;;3.72;2.00;;;11.20;99.90;;;;;;5030307;28;20500;-76
2021/10/08 04:19:06;;;;;;;3.45;2.35;;;11.20;99.90;;;;;;5030080;28;20177;-76
2021/10/08 04:21:33;;;;;;;3.80;2.25;;;11.20;99.90;;;;;;5029938;28;20272;-77
2021/10/08 04:23:59;;;;;;;7.43;2.33;;;11.20;99.90;;;;;;5048022;28;20161;-77
2021/10/08 04:26:25;;;;;;;2.95;2.20;;;11.20;99.90;;;;;;5029684;28;20191;-76
2021/10/08 04:28:51;;;;;;;3.28;2.40;;;11.20;99.90;;;;;;5047650;28;20177;-76
2021/10/08 04:31:17;;;;;;;5.28;2.22;;;11.30;99.90;;;;;;5046747;28;20189;-77
2021/10/08 04:33:43;;;;;;;4.18;2.80;;;11.20;99.90;;;;;;5047455;28;20176;-76
2021/10/08 04:36:09;;;;;;;3.53;2.22;;;11.20;99.90;;;;;;5047722;28;20220;-76
2021/10/08 04:38:34;;;;;;;3.88;2.10;;;11.20;99.90;;;;;;5029749;28;20178;-76
2021/10/08 04:41:01;;;;;;;2.78;1.77;;;11.20;99.90;;;;;;5029371;28;20684;-76
2021/10/08 04:43:28;;;;;;;4.30;2.03;;;11.20;99.90;;;;;;5047621;28;20249;-77
2021/10/08 04:45:54;;;;;;;3.50;2.17;;;11.20;99.90;;;;;;5047647;28;20217;-76
2021/10/08 04:48:20;;;;;;;5.05;2.35;;;11.30;99.90;;;;;;5029497;28;20177;-77
2021/10/08 04:50:46;;;;;;;3.55;2.30;;;11.20;99.90;;;;;;5047657;28;20207;-78
2021/10/08 04:53:18;;;;;;;4.85;2.47;;;11.20;99.90;;;;;;5047440;28;20252;-77
2021/10/08 04:55:45;;;;;;;2.78;2.08;;;11.20;99.90;;;;;;5047587;28;20173;-76
2021/10/08 04:58:11;;;;;;;3.40;2.42;;;11.20;99.90;;;;;;5047676;28;20231;-76
2021/10/08 05:00:37;;;;;;;5.55;2.78;;;11.20;99.90;;;;;;5047327;28;20189;-78
2021/10/08 05:03:11;;;;;;;3.60;2.53;;;11.20;99.90;;;;;;5047526;28;20177;-78
2021/10/08 05:05:37;;;;;;;3.55;2.30;;;11.20;99.90;;;;;;5047636;28;20181;-77
2021/10/08 05:08:05;;;;;;;4.20;2.95;;;11.20;99.90;;;;;;5047426;28;20161;-77
2021/10/08 05:10:32;;;;;;;3.65;2.28;;;11.20;99.90;;;;;;5047072;28;20247;-77
2021/10/08 05:12:58;;;;;;;7.57;2.55;;;11.20;99.90;;;;;;5047066;28;20311;-78
2021/10/08 05:15:24;;;;;;;2.67;2.10;;;11.20;99.90;;;;;;5047106;28;20162;-77
2021/10/08 05:17:50;;;;;;;4.78;2.70;;;11.10;99.90;;;;;;5047150;28;20153;-77
2021/10/08 05:20:17;;;;;;;6.72;2.70;;;11.10;99.90;;;;;;5029346;28;20197;-77
2021/10/08 05:22:43;;;;;;;5.22;2.80;;;11.10;99.90;;;;;;5028962;28;20208;-77
2021/10/08 05:25:09;;;;;;;3.70;2.60;;;11.20;99.90;;;;;;5047411;28;20166;-76
2021/10/08 05:27:35;;;;;;;3.88;2.42;;;11.20;99.90;;;;;;5029241;28;20204;-76
2021/10/08 05:30:01;;;;;;;3.00;2.70;;;11.10;99.90;;;;;;5047177;28;20197;-77
2021/10/08 05:32:26;;;;;;;3.05;2.00;;;11.20;99.90;;;;;;5046956;28;20193;-77
2021/10/08 05:34:52;;;;;;;4.07;2.80;;;11.10;99.90;;;;;;5047080;28;20189;-77
2021/10/08 05:37:18;;;;;;;4.80;2.97;;;11.10;99.90;;;;;;5046866;28;20178;-76
2021/10/08 05:39:45;;;;;;;5.57;2.35;;;11.20;99.90;;;;;;5031690;28;20197;-76
2021/10/08 05:42:11;;;;;;;4.88;2.97;;;11.20;99.90;;;;;;5032625;28;20184;-78
2021/10/08 05:44:37;;;;;;;5.13;2.65;;;11.20;99.90;;;;;;5050639;28;20166;-76
2021/10/08 05:47:03;;;;;;;5.97;2.65;;;11.20;99.90;;;;;;5032978;28;20239;-76
2021/10/08 05:49:29;;;;;;;4.03;2.83;;;11.10;99.90;;;;;;5032750;28;20173;-76
2021/10/08 05:51:54;;;;;;;6.15;2.75;;;11.20;99.90;;;;;;5055762;28;20220;-77
2021/10/08 05:54:20;;;;;;;6.43;2.70;;;11.20;99.90;;;;;;5090354;28;20176;-77
2021/10/08 05:56:46;;;;;;;5.75;2.50;;;11.10;99.90;;;;;;5090815;28;20162;-77
2021/10/08 05:59:12;;;;;;;5.63;2.88;;;11.20;99.90;;;;;;5090861;28;20624;-77
2021/10/08 06:01:38;;;;;;;4.45;2.60;;;11.20;99.90;;;;;;5090533;28;20200;-77
2021/10/08 06:04:06;;;;;;;6.18;3.17;;;11.20;99.90;;;;;;5089344;28;20196;-76
2021/10/08 06:06:33;;;;;;;7.97;3.70;;;11.20;99.90;;;;;;5090440;28;20172;-76
2021/10/08 06:09:00;;;;;;;4.65;2.65;;;11.20;99.90;;;;;;5088979;28;20175;-78
2021/10/08 06:11:26;;;;;;;3.92;2.25;;;11.20;99.90;;;;;;5090476;28;20196;-77
2021/10/08 06:13:52;;;;;;;5.53;3.30;;;11.20;99.90;;;;;;5088808;28;20191;-76
2021/10/08 06:16:18;;;;;;;4.10;2.50;;;11.20;99.90;;;;;;5090301;28;20281;-77
2021/10/08 06:18:44;;;;;;;7.30;2.85;;;11.20;99.90;;;;;;5090360;28;20160;-77
2021/10/08 06:21:09;;;;;;;4.32;2.58;;;11.30;99.90;;;;;;5089084;28;20199;-77
2021/10/08 06:23:35;;;;;;;5.47;3.13;;;11.40;99.90;;;;;;5090489;28;20542;-78
2021/10/08 06:26:01;;;;;;;4.97;3.08;;;11.40;99.90;;;;;;5090627;28;20152;-76
2021/10/08 06:28:27;;;;;;;14.60;3.67;;;11.40;99.90;;;;;;5089920;28;20153;-77
2021/10/08 06:30:53;;;;;;;4.00;3.15;;;11.40;99.90;;;;;;5088667;28;20680;-77
2021/10/08 06:33:19;;;;;;;5.85;2.80;;;11.50;99.90;;;;;;5089708;28;20188;-77
2021/10/08 06:35:46;;;;;;;4.60;2.80;;;11.40;99.90;;;;;;5090367;28;20220;-76
2021/10/08 06:38:13;;;;;;;4.78;3.25;;;11.40;99.90;;;;;;5088793;28;20164;-76
2021/10/08 06:40:39;;;;;;;6.28;3.08;;;11.40;99.90;;;;;;5083971;28;20189;-77
2021/10/08 06:43:06;;;;;;;5.72;3.17;;;11.50;99.90;;;;;;5067980;28;20200;-76
2021/10/08 06:45:33;;;;;;;5.43;3.42;;;11.50;99.90;;;;;;5066347;28;21718;-76
2021/10/08 06:47:59;;;;;;;4.68;3.42;;;11.60;99.90;;;;;;5067966;28;20198;-77
2021/10/08 06:50:25;;;;;;;4.57;2.88;;;11.50;99.90;;;;;;5067977;28;20257;-76
2021/10/08 06:52:51;;;;;;;5.53;3.30;;;11.40;99.90;;;;;;5053186;28;20597;-76
2021/10/08 06:55:17;;;;;;;4.43;3.13;;;11.40;99.90;;;;;;5049325;28;20161;-76
2021/10/08 06:57:43;;;;;;;6.78;2.95;;;11.40;99.90;;;;;;5031113;28;20175;-75
2021/10/08 07:00:10;;;;;;;5.68;3.05;;;11.30;99.90;;;;;;5031475;28;20233;-76
2021/10/08 07:02:52;;;;;;;6.45;2.97;;;11.30;99.90;;;;;;5031670;28;20581;-76
2021/10/08 07:05:21;;;;;;;3.42;2.72;;;11.30;99.90;;;;;;5049329;28;20227;-76
2021/10/08 07:07:47;;;;;;;11.32;3.40;;;11.30;99.90;;;;;;5031355;28;20185;-76
2021/10/08 07:10:14;;;;;;;7.97;3.33;;;11.30;99.90;;;;;;5048853;28;20264;-76
2021/10/08 07:12:40;;;;;;;5.78;3.08;;;11.30;99.90;;;;;;5031003;28;20208;-76
2021/10/08 07:15:15;;;;;;;4.20;3.50;;;11.40;99.90;;;;;;5031386;28;20188;-76
2021/10/08 07:17:43;;;;;;;7.07;3.05;;;11.50;99.90;;;;;;5049400;28;20156;-75
2021/10/08 07:20:10;;;;;;;8.93;5.30;;;11.60;99.90;;;;;;5049051;28;20212;-76
2021/10/08 07:22:37;;;;;;;10.07;5.68;;;11.60;99.90;;;;;;5031283;28;20197;-76
2021/10/08 07:25:06;;;;;;;10.45;6.53;;;11.70;99.90;;;;;;5048413;28;20413;-78
2021/10/08 07:27:32;;;;;;;6.05;4.75;;;11.70;99.90;;;;;;5049030;28;20185;-77
2021/10/08 07:29:58;;;;;;;8.15;4.53;;;11.70;99.90;;;;;;5048514;28;20193;-76
2021/10/08 07:32:24;;;;;;;12.40;6.15;;;11.90;99.90;;;;;;5048906;28;20215;-75
2021/10/08 07:34:50;;;;;;;13.35;6.13;;;11.80;99.90;;;;;;5048807;28;20165;-75
2021/10/08 07:37:16;;;;;;;10.35;6.07;;;11.80;99.90;;;;;;5048902;28;20153;-76
2021/10/08 07:39:42;;;;;;;7.90;5.38;;;11.80;99.90;;;;;;5048675;28;20212;-75
2021/10/08 07:42:09;;;;;;;9.32;6.13;;;11.70;99.90;;;;;;5030930;28;20342;-76
2021/10/08 07:44:35;;;;;;;9.60;5.50;;;11.80;99.90;;;;;;5042317;28;20186;-76
2021/10/08 07:47:01;;;;;;;8.75;5.47;;;11.80;99.90;;;;;;5056887;28;20208;-76
2021/10/08 07:49:27;;;;;;;10.98;5.97;;;11.90;99.90;;;;;;5048231;28;20168;-76
2021/10/08 07:51:53;;;;;;;10.38;6.03;;;11.60;99.90;;;;;;5042346;28;20243;-76
2021/10/08 07:54:19;;;;;;;10.75;5.93;;;11.60;99.90;;;;;;5068269;28;20179;-77
2021/10/08 07:56:45;;;;;;;16.73;6.43;;;11.60;99.90;;;;;;5068332;28;20617;-76
2021/10/08 07:59:11;;;;;;;8.25;6.10;;;11.60;99.90;;;;;;5068238;28;20176;-76
2021/10/08 08:01:37;;;;;;;8.57;5.40;;;11.60;99.90;;;;;;5066823;28;20188;-76
2021/10/08 08:04:03;;;;;;;8.88;5.82;;;11.50;99.90;;;;;;5068068;28;20175;-76
2021/10/08 08:06:29;;;;;;;12.32;6.35;;;11.60;99.90;;;;;;5066769;28;20190;-76
2021/10/08 08:08:55;;;;;;;7.78;5.70;;;11.50;99.90;;;;;;5068232;28;20161;-76
2021/10/08 08:11:20;;;;;;;10.15;6.75;;;11.50;99.90;;;;;;5047254;28;20581;-76
2021/10/08 08:13:46;;;;;;;11.43;6.20;;;11.40;99.90;;;;;;5064794;28;20183;-76
2021/10/08 08:16:12;;;;;;;10.63;6.80;;;11.40;99.90;;;;;;5068124;28;20218;-76
2021/10/08 08:18:38;;;;;;;10.38;6.40;;;11.40;99.90;;;;;;5067927;28;20180;-75
2021/10/08 08:21:04;;;;;;;7.65;6.03;;;11.50;99.90;;;;;;5067503;28;20510;-75
2021/10/08 08:23:30;;;;;;;11.57;6.65;;;11.60;99.90;;;;;;5067987;28;20220;-76
2021/10/08 08:25:56;;;;;;;8.27;6.28;;;11.70;99.90;;;;;;5067778;28;20224;-76
2021/10/08 08:28:23;;;;;;;8.90;6.22;;;11.70;99.90;;;;;;5066140;28;20165;-76
2021/10/08 08:30:49;;;;;;;13.23;6.88;;;11.50;99.90;;;;;;5066969;28;20196;-76
2021/10/08 08:33:16;;;;;;;13.40;6.35;;;11.60;99.90;;;;;;5066109;28;20197;-76
2021/10/08 08:35:42;;;;;;;7.72;6.18;;;11.60;99.90;;;;;;5067726;28;20199;-76
2021/10/08 08:38:08;;;;;;;10.27;6.63;;;11.60;99.90;;;;;;5067734;28;20167;-77
2021/10/08 08:40:36;;;;;;;9.27;6.20;;;11.60;99.90;;;;;;5067179;28;20212;-76
2021/10/08 08:43:02;;;;;;;9.43;5.95;;;11.70;99.90;;;;;;5067741;28;20260;-76
2021/10/08 08:45:30;;;;;;;13.45;6.40;;;11.60;99.90;;;;;;5066443;28;20161;-77
2021/10/08 08:48:08;;;;;;;9.98;6.78;;;11.50;99.90;;;;;;5067436;28;20153;-76
2021/10/08 08:50:38;;;;;;;8.10;6.25;;;11.60;99.90;;;;;;5065552;28;20192;-76
2021/10/08 08:53:05;;;;;;;12.88;6.43;;;11.60;99.90;;;;;;5049264;28;20252;-76
2021/10/08 08:55:31;;;;;;;9.85;6.53;;;11.70;99.90;;;;;;5047320;28;20229;-76
2021/10/08 08:57:57;;;;;;;10.48;6.53;;;11.70;99.90;;;;;;5047296;28;20154;-76
2021/10/08 09:00:23;;;;;;;8.57;5.88;;;11.70;99.90;;;;;;5025483;28;20232;-76
2021/10/08 09:02:59;;;;;;;9.23;6.25;;;11.70;99.90;;;;;;5047067;28;20172;-76
2021/10/08 09:05:30;;;;;;;8.57;5.97;;;11.80;99.90;;;;;;5044988;28;20208;-77
2021/10/08 09:07:59;;;;;;;10.55;6.82;;;11.80;99.90;;;;;;5047580;28;20174;-75
2021/10/08 09:10:27;;;;;;;10.68;6.22;;;11.80;99.90;;;;;;5046856;28;20252;-76
2021/10/08 09:12:58;;;;;;;10.95;6.78;;;11.80;99.90;;;;;;5029510;28;20254;-76
2021/10/08 09:15:27;;;;;;;11.02;6.25;;;11.80;99.90;;;;;;5051654;28;20189;-76
2021/10/08 09:18:10;;;;;;;9.32;5.80;;;11.70;99.90;;;;;;5051473;28;20239;-75
2021/10/08 09:20:37;;;;;;;9.75;6.25;;;11.70;99.90;;;;;;5051045;28;20158;-76
2021/10/08 09:23:04;;;;;;;10.57;6.22;;;11.50;99.90;;;;;;5051250;28;20583;-75
2021/10/08 09:25:36;;;;;;;14.23;6.68;;;11.50;99.90;;;;;;5051156;28;20196;-75
2021/10/08 09:28:09;;;;;;;8.27;5.50;;;11.50;99.90;;;;;;5033416;28;20184;-75
2021/10/08 09:30:39;;;;;;;9.55;6.13;;;11.60;99.90;;;;;;5032871;28;20177;-75
2021/10/08 09:33:11;;;;;;;9.40;6.35;;;11.70;99.90;;;;;;5051055;28;20185;-76
2021/10/08 09:35:38;;;;;;;13.52;7.05;;;11.60;99.90;;;;;;5047748;28;20219;-76
2021/10/08 09:38:13;;;;;;;12.73;8.15;;;11.60;99.90;;;;;;5051025;28;20162;-77
2021/10/08 09:40:51;;;;;;;10.75;7.05;;;11.60;99.90;;;;;;5046633;28;20700;-75
2021/10/08 09:43:23;;;;;;;10.18;6.55;;;11.70;99.90;;;;;;5033021;28;20279;-75
2021/10/08 09:45:53;;;;;;;8.07;5.68;;;11.60;99.90;;;;;;5032893;28;20197;-75
2021/10/08 09:48:21;;;;;;;8.90;6.13;;;11.50;99.90;;;;;;5032804;28;20192;-75
2021/10/08 09:51:01;;;;;;;12.10;6.32;;;11.60;99.90;;;;;;5050021;28;20193;-75
2021/10/08 09:53:28;;;;;;;12.38;6.15;;;11.60;99.90;;;;;;5050627;28;20249;-75
2021/10/08 09:55:55;;;;;;;10.77;6.82;;;11.50;99.90;;;;;;5050659;28;20165;-75
2021/10/08 09:58:21;;;;;;;13.77;7.10;;;11.40;99.90;;;;;;5049459;28;20177;-76
2021/10/08 10:01:04;;;;;;;17.92;7.40;;;11.40;99.90;;;;;;5048115;28;20228;-77
2021/10/08 10:03:31;;;;;;;10.73;6.75;;;11.40;99.90;;;;;;5049915;28;20176;-77
2021/10/08 10:06:01;;;;;;;12.15;6.93;;;11.40;99.90;;;;;;5048324;28;20169;-76
2021/10/08 10:08:28;;;;;;;10.85;6.05;;;11.40;99.90;;;;;;5049434;28;20214;-77
2021/10/08 10:10:56;;;;;;;8.30;6.30;;;11.40;99.90;;;;;;5049189;28;20279;-76
2021/10/08 10:13:23;;;;;;;12.10;6.65;;;11.50;99.90;;;;;;5049456;28;20185;-77
2021/10/08 10:15:49;;;;;;;7.90;6.40;;;11.60;99.90;;;;;;5049735;28;20181;-77
2021/10/08 10:18:17;;;;;;;10.27;6.72;;;11.70;99.90;;;;;;5051169;28;20224;-77
2021/10/08 10:20:49;;;;;;;11.93;5.72;;;11.70;99.90;;;;;;5050395;28;20176;-76
2021/10/08 10:23:19;;;;;;;9.43;6.68;;;11.70;99.90;;;;;;5051803;28;20189;-75
2021/10/08 10:25:47;;;;;;;9.85;6.03;;;11.70;99.90;;;;;;5049594;28;20177;-75
2021/10/08 10:28:15;;;;;;;7.43;5.75;;;11.60;99.90;;;;;;5051002;28;20315;-75
2021/10/08 10:30:44;;;;;;;9.50;6.55;;;11.60;99.90;;;;;;5051583;28;20170;-76
2021/10/08 10:33:11;;;;;;;10.82;7.07;;;11.50;99.90;;;;;;5051167;28;20204;-75
2021/10/08 10:35:46;;;;;;;13.57;6.47;;;11.50;99.90;;;;;;5049608;28;20161;-76
2021/10/08 10:38:35;;;;;;;11.07;6.82;;;11.50;99.90;;;;;;5049446;28;20192;-76
2021/10/08 10:41:04;;;;;;;10.55;6.72;;;11.40;99.90;;;;;;5048127;28;20165;-76
2021/10/08 10:43:35;;;;;;;16.25;6.72;;;11.40;99.90;;;;;;5049498;28;20193;-76
2021/10/08 10:46:21;;;;;;;8.63;6.38;;;11.40;99.90;;;;;;5049477;28;20161;-76
2021/10/08 10:49:24;;;;;;;11.23;7.43;;;11.40;99.90;;;;;;5048940;28;20172;-75
2021/10/08 10:52:12;;;;;;;12.05;6.15;;;11.50;99.90;;;;;;5046311;28;20217;-75
2021/10/08 10:54:39;;;;;;;11.65;7.43;;;11.60;99.90;;;;;;5032019;28;20666;-77
2021/10/08 10:57:10;;;;;;;11.90;7.32;;;11.80;99.90;;;;;;5048078;28;20288;-75
2021/10/08 10:59:40;;;;;;;10.75;6.93;;;11.90;99.90;;;;;;5048903;28;20250;-77
2021/10/08 11:02:07;;;;;;;13.13;7.13;;;11.80;99.90;;;;;;5025588;28;20185;-75
2021/10/08 11:04:40;;;;;;;12.45;7.40;;;11.80;99.90;;;;;;5057147;28;20185;-75
2021/10/08 11:07:08;;;;;;;9.80;7.10;;;11.90;99.90;;;;;;5048079;28;20193;-76
2021/10/08 11:09:36;;;;;;;13.77;7.47;;;11.90;99.90;;;;;;5048792;28;20177;-77
2021/10/08 11:12:28;;;;;;;12.57;7.95;;;12.00;99.90;;;;;;5049004;28;20269;-77
2021/10/08 11:15:19;;;;;;;13.43;7.10;;;12.30;99.90;;;;;;5040357;28;20189;-76
2021/10/08 11:17:57;;;;;;;13.05;7.15;;;12.10;99.90;;;;;;5048340;28;20223;-76
2021/10/08 11:20:26;;;;;;;10.80;6.65;;;11.80;99.90;;;;;;5048560;28;20162;-75
2021/10/08 11:22:54;;;;;;;9.45;6.70;;;11.70;99.90;;;;;;5048251;28;20180;-75
2021/10/08 11:25:20;;;;;;;17.15;7.07;;;11.90;99.90;;;;;;5047714;28;20172;-75
2021/10/08 11:27:47;;;;;;;7.88;5.93;;;11.90;99.90;;;;;;5047411;28;20311;-75
2021/10/08 11:30:13;;;;;;;11.90;7.60;;;12.10;99.90;;;;;;5047927;28;20618;-74
2021/10/08 11:32:50;;;;;;;9.45;5.95;;;12.20;99.90;;;;;;5047998;28;20193;-74
2021/10/08 11:35:18;;;;;;;11.50;7.35;;;12.30;99.90;;;;;;5047053;28;20192;-75
2021/10/08 11:37:47;;;;;;;10.32;7.18;;;12.20;99.90;;;;;;5047814;28;20214;-77
2021/10/08 11:40:35;;;;;;;8.82;6.28;;;12.30;99.90;;;;;;5048043;28;20164;-76
2021/10/08 11:43:10;;;;;;;10.20;6.88;;;12.50;99.90;;;;;;5048069;28;20181;-76
2021/10/08 11:45:52;;;;;;;7.72;5.88;;;12.60;99.90;;;;;;5029769;28;20168;-76
2021/10/08 11:48:23;;;;;;;8.52;6.78;;;12.70;99.90;;;;;;5027206;28;20207;-76
2021/10/08 11:51:02;;;;;;;12.95;6.50;;;12.50;99.90;;;;;;5029461;28;20201;-76
2021/10/08 11:53:45;;;;;;;10.05;6.32;;;12.40;99.90;;;;;;5047529;28;20213;-76
2021/10/08 11:56:29;;;;;;;12.38;7.43;;;12.40;99.90;;;;;;5047484;28;20213;-75
2021/10/08 11:58:58;;;;;;;8.52;6.50;;;12.50;99.90;;;;;;5047242;28;20166;-75
2021/10/08 12:01:26;;;;;;;13.63;6.13;;;12.30;99.90;;;;;;5047817;28;20182;-75
2021/10/08 12:03:53;;;;;;;10.77;6.72;;;12.20;99.90;;;;;;5029896;28;20197;-76
2021/10/08 12:06:28;;;;;;;12.23;7.32;;;12.30;99.90;;;;;;5047772;28;20149;-75
2021/10/08 12:08:56;;;;;;;13.32;7.45;;;12.40;99.90;;;;;;5047730;28;20154;-75
2021/10/08 12:11:26;;;;;;;11.23;7.65;;;12.60;99.90;;;;;;5029645;28;20177;-75
2021/10/08 12:13:57;;;;;;;11.43;7.80;;;12.40;99.90;;;;;;5029588;28;20256;-76
2021/10/08 12:16:24;;;;;;;12.68;7.68;;;12.20;99.90;;;;;;5029779;28;20162;-75
2021/10/08 12:18:56;;;;;;;10.55;6.88;;;12.20;99.90;;;;;;5028703;28;20181;-75
2021/10/08 12:21:27;;;;;;;10.63;7.65;;;12.10;99.90;;;;;;5039896;28;20613;-76
2021/10/08 12:23:56;;;;;;;11.20;6.88;;;12.10;99.90;;;;;;5020558;28;20211;-75
2021/10/08 12:26:23;;;;;;;14.60;7.53;;;12.10;99.90;;;;;;5008004;28;20197;-75
2021/10/08 12:28:53;;;;;;;14.00;7.30;;;12.10;99.90;;;;;;5037009;28;20496;-76
2021/10/08 12:31:21;;;;;;;10.25;7.55;;;12.00;99.90;;;;;;5019613;28;20186;-76
2021/10/08 12:33:48;;;;;;;12.32;7.28;;;12.00;99.90;;;;;;5020114;28;20188;-77
2021/10/08 12:36:17;;;;;;;14.10;8.38;;;12.00;99.90;;;;;;5020495;28;20208;-76
2021/10/08 12:39:10;;;;;;;12.75;7.95;;;12.00;99.90;;;;;;5015930;28;20197;-76
2021/10/08 12:41:51;;;;;;;15.32;7.93;;;12.00;99.90;;;;;;5027419;28;20182;-74
2021/10/08 12:44:22;;;;;;;18.05;8.18;;;11.80;99.90;;;;;;5027446;28;20289;-74
2021/10/08 12:49:51;;;;;;;11.13;7.80;;;11.80;99.90;;;;;;5025998;28;20166;-77
2021/10/08 12:52:32;;;;;;;12.40;8.10;;;11.90;99.90;;;;;;5027409;28;20235;-76